Time,TemperatureF,DewpointF,PressureIn,WindDirection,WindDirectionDegrees,WindSpeedMPH,WindSpeedGustMPH,Humidity,HourlyPrecipIn,Conditions,Clouds,dailyrainin,SoftwareType,DateUTC
2012-07-09 00:08:00,66.0,35.0,29.88,NNE,12,0.0,1.0,32,0.00,,,0.00,weatherlink.com 1.10,2012-07-09 07:08:00,
2012-07-09 00:23:00,66.6,35.0,29.88,NNE,16,1.0,2.0,31,0.00,,,0.00,weatherlink.com 1.10,2012-07-09 07:23:00,
2012-07-09 00:38:00,66.2,35.0,29.88,NNE,20,1.0,2.0,31,0.00,,,0.00,weatherlink.com 1.10,2012-07-09 07:38:00,
2012-07-09 00:53:00,66.2,35.0,29.88,North,358,1.0,2.0,31,0.00,,,0.00,weatherlink.com 1.10,2012-07-09 07:53:00,
2012-07-09 01:08:00,66.6,34.0,29.87,North,4,1.0,2.0,30,0.00,,,0.00,weatherlink.com 1.10,2012-07-09 08:08:00,
2012-07-09 01:23:00,65.6,35.0,29.88,NNE,20,2.0,2.0,32,0.00,,,0.00,weatherlink.com 1.10,2012-07-09 08:23:00,
2012-07-09 01:38:00,66.8,34.0,29.87,NNE,18,2.0,3.0,30,0.00,,,0.00,weatherlink.com 1.10,2012-07-09 08:38:00,
2012-07-09 01:53:00,69.2,36.0,29.87,NNW,340,2.0,3.0,30,0.00,,,0.00,weatherlink.com 1.10,2012-07-09 08:53:00,
2012-07-09 02:08:00,71.4,37.0,29.87,North,4,1.0,4.0,28,0.00,,,0.00,weatherlink.com 1.10,2012-07-09 09:08:00,
2012-07-09 02:23:00,72.4,37.0,29.86,NNE,15,1.0,4.0,28,0.00,,,0.00,weatherlink.com 1.10,2012-07-09 09:23:00,
2012-07-09 02:38:00,72.5,38.0,29.86,North,357,0.0,3.0,29,0.00,,,0.00,weatherlink.com 1.10,2012-07-09 09:38:00,
2012-07-09 02:53:00,72.3,37.0,29.86,NNE,16,1.0,3.0,28,0.00,,,0.00,weatherlink.com 1.10,2012-07-09 09:53:00,
2012-07-09 03:09:00,70.7,37.0,29.86,North,11,1.0,2.0,29,0.00,,,0.00,weatherlink.com 1.10,2012-07-09 10:09:00,
2012-07-09 03:23:00,71.3,37.0,29.86,North,9,1.0,2.0,29,0.00,,,0.00,weatherlink.com 1.10,2012-07-09 10:23:00,
2012-07-09 03:38:00,72.5,38.0,29.86,NNW,330,1.0,3.0,28,0.00,,,0.00,weatherlink.com 1.10,2012-07-09 10:38:00,
2012-07-09 03:53:00,71.2,38.0,29.85,North,357,1.0,1.0,30,0.00,,,0.00,weatherlink.com 1.10,2012-07-09 10:53:00,
2012-07-09 04:08:00,73.3,38.0,29.85,North,349,0.0,3.0,28,0.00,,,0.00,weatherlink.com 1.10,2012-07-09 11:08:00,
2012-07-09 04:24:00,73.5,38.0,29.85,North,359,2.0,5.0,28,0.00,,,0.00,weatherlink.com 1.10,2012-07-09 11:24:00,
2012-07-09 04:39:00,74.6,38.0,29.84,North,358,1.0,5.0,27,0.00,,,0.00,weatherlink.com 1.10,2012-07-09 11:39:00,
2012-07-09 04:54:00,74.7,38.0,29.84,NE,34,3.0,4.0,27,0.00,,,0.00,weatherlink.com 1.10,2012-07-09 11:54:00,
2012-07-09 05:09:00,74.6,38.0,29.85,North,6,3.0,6.0,27,0.00,,,0.00,weatherlink.com 1.10,2012-07-09 12:09:00,
2012-07-09 05:24:00,74.4,37.0,29.85,NNE,17,2.0,4.0,26,0.00,,,0.00,weatherlink.com 1.10,2012-07-09 12:24:00,
2012-07-09 05:39:00,73.3,38.0,29.86,SW,232,0.0,2.0,28,0.00,,,0.00,weatherlink.com 1.10,2012-07-09 12:39:00,
2012-07-09 05:54:00,70.7,37.0,29.86,North,9,1.0,2.0,29,0.00,,,0.00,weatherlink.com 1.10,2012-07-09 12:54:00,
2012-07-09 06:10:00,72.5,36.0,29.86,NNE,23,2.0,2.0,26,0.00,,,0.00,weatherlink.com 1.10,2012-07-09 13:10:00,
2012-07-09 06:24:00,73.6,36.0,29.86,North,10,0.0,2.0,25,0.00,,,0.00,weatherlink.com 1.10,2012-07-09 13:24:00,
2012-07-09 06:39:00,72.4,36.0,29.87,NNW,348,1.0,2.0,27,0.00,,,0.00,weatherlink.com 1.10,2012-07-09 13:39:00,
2012-07-09 06:54:00,73.5,36.0,29.87,North,9,1.0,3.0,25,0.00,,,0.00,weatherlink.com 1.10,2012-07-09 13:54:00,
2012-07-09 07:09:00,74.5,33.0,29.87,North,8,1.0,4.0,22,0.00,,,0.00,weatherlink.com 1.10,2012-07-09 14:09:00,
2012-07-09 07:24:00,76.2,31.0,29.87,NNW,343,1.0,4.0,19,0.00,,,0.00,weatherlink.com 1.10,2012-07-09 14:24:00,
2012-07-09 07:39:00,77.4,33.0,29.88,North,11,4.0,4.0,20,0.00,,,0.00,weatherlink.com 1.10,2012-07-09 14:39:00,
2012-07-09 07:54:00,78.3,35.0,29.88,NW,321,1.0,3.0,21,0.00,,,0.00,weatherlink.com 1.10,2012-07-09 14:54:00,
2012-07-09 08:09:00,79.4,37.0,29.88,North,6,2.0,3.0,22,0.00,,,0.00,weatherlink.com 1.10,2012-07-09 15:09:00,
2012-07-09 08:24:00,80.3,41.0,29.88,North,6,0.0,1.0,25,0.00,,,0.00,weatherlink.com 1.10,2012-07-09 15:24:00,
2012-07-09 08:39:00,80.5,40.0,29.88,North,8,0.0,1.0,24,0.00,,,0.00,weatherlink.com 1.10,2012-07-09 15:39:00,
2012-07-09 08:54:00,80.2,40.0,29.88,North,8,0.0,0.0,24,0.00,,,0.00,weatherlink.com 1.10,2012-07-09 15:54:00,
2012-07-09 09:09:00,81.1,35.0,29.88,SSW,206,0.0,1.0,19,0.00,,,0.00,weatherlink.com 1.10,2012-07-09 16:09:00,
2012-07-09 09:24:00,81.7,37.0,29.89,SSW,207,0.0,1.0,20,0.00,,,0.00,weatherlink.com 1.10,2012-07-09 16:24:00,
2012-07-09 09:39:00,82.4,36.0,29.88,SSW,208,0.0,1.0,19,0.00,,,0.00,weatherlink.com 1.10,2012-07-09 16:39:00,
2012-07-09 09:54:00,83.1,37.0,29.88,SSW,204,1.0,1.0,19,0.00,,,0.00,weatherlink.com 1.10,2012-07-09 16:54:00,
2012-07-09 10:09:00,84.3,40.0,29.88,SW,217,0.0,1.0,21,0.00,,,0.00,weatherlink.com 1.10,2012-07-09 17:09:00,
2012-07-09 10:24:00,85.1,38.0,29.88,SW,217,0.0,2.0,19,0.00,,,0.00,weatherlink.com 1.10,2012-07-09 17:24:00,
2012-07-09 10:39:00,86.0,41.0,29.88,SW,214,0.0,1.0,20,0.00,,,0.00,weatherlink.com 1.10,2012-07-09 17:39:00,
2012-07-09 10:54:00,86.4,38.0,29.88,SSW,205,2.0,2.0,18,0.00,,,0.00,weatherlink.com 1.10,2012-07-09 17:54:00,
2012-07-09 11:10:00,87.5,39.0,29.88,SSW,212,1.0,3.0,18,0.00,,,0.00,weatherlink.com 1.10,2012-07-09 18:10:00,
2012-07-09 11:25:00,89.6,42.0,29.88,ENE,76,0.0,1.0,19,0.00,,,0.00,weatherlink.com 1.10,2012-07-09 18:25:00,
2012-07-09 11:40:00,91.0,40.0,29.88,WNW,288,0.0,3.0,17,0.00,,,0.00,weatherlink.com 1.10,2012-07-09 18:40:00,
2012-07-09 11:55:00,92.0,38.0,29.88,NNE,24,0.0,4.0,15,0.00,,,0.00,weatherlink.com 1.10,2012-07-09 18:55:00,
2012-07-09 12:10:00,93.0,37.0,29.87,South,179,0.0,3.0,14,0.00,,,0.00,weatherlink.com 1.10,2012-07-09 19:10:00,
2012-07-09 12:25:00,92.7,39.0,29.87,NNE,16,0.0,3.0,15,0.00,,,0.00,weatherlink.com 1.10,2012-07-09 19:25:00,
2012-07-09 12:40:00,92.3,40.0,29.87,East,89,1.0,5.0,16,0.00,,,0.00,weatherlink.com 1.10,2012-07-09 19:40:00,
2012-07-09 12:55:00,92.9,37.0,29.87,ENE,68,2.0,4.0,14,0.00,,,0.00,weatherlink.com 1.10,2012-07-09 19:55:00,
2012-07-09 13:10:00,91.8,40.0,29.87,NNE,12,3.0,5.0,16,0.00,,,0.00,weatherlink.com 1.10,2012-07-09 20:10:00,
2012-07-09 13:25:00,92.0,41.0,29.86,SSW,207,1.0,3.0,17,0.00,,,0.00,weatherlink.com 1.10,2012-07-09 20:25:00,
2012-07-09 13:40:00,92.9,40.0,29.86,West,280,4.0,5.0,16,0.00,,,0.00,weatherlink.com 1.10,2012-07-09 20:40:00,
2012-07-09 13:55:00,93.1,39.0,29.86,ENE,78,2.0,3.0,15,0.00,,,0.00,weatherlink.com 1.10,2012-07-09 20:55:00,
2012-07-09 14:10:00,93.7,38.0,29.86,NNW,333,0.0,4.0,14,0.00,,,0.00,weatherlink.com 1.10,2012-07-09 21:10:00,
2012-07-09 14:25:00,92.7,39.0,29.85,NNW,327,2.0,5.0,15,0.00,,,0.00,weatherlink.com 1.10,2012-07-09 21:25:00,
2012-07-09 14:40:00,92.1,40.0,29.84,WNW,300,0.0,5.0,16,0.00,,,0.00,weatherlink.com 1.10,2012-07-09 21:40:00,
2012-07-09 14:55:00,91.4,38.0,29.84,NE,47,1.0,4.0,15,0.00,,,0.00,weatherlink.com 1.10,2012-07-09 21:55:00,
2012-07-09 15:10:00,92.9,39.0,29.84,SSE,159,1.0,4.0,15,0.00,,,0.00,weatherlink.com 1.10,2012-07-09 22:10:00,
2012-07-09 15:25:00,91.0,37.0,29.83,NE,48,0.0,4.0,15,0.00,,,0.00,weatherlink.com 1.10,2012-07-09 22:25:00,
2012-07-09 15:40:00,91.4,38.0,29.83,WNW,294,0.0,4.0,15,0.00,,,0.00,weatherlink.com 1.10,2012-07-09 22:40:00,
2012-07-09 15:55:00,91.4,36.0,29.82,NE,34,2.0,5.0,14,0.00,,,0.00,weatherlink.com 1.10,2012-07-09 22:55:00,
2012-07-09 16:10:00,91.1,36.0,29.82,East,91,0.0,-999.0,14,-99.99,,,0.00,weatherlink.com 1.10,2012-07-09 23:10:00,
2012-07-09 16:25:00,90.8,37.0,29.82,SW,231,1.0,3.0,15,0.00,,,0.00,weatherlink.com 1.10,2012-07-09 23:25:00,
2012-07-09 16:40:00,90.9,37.0,29.82,SW,217,0.0,4.0,15,0.00,,,0.00,weatherlink.com 1.10,2012-07-09 23:40:00,
2012-07-09 16:55:00,91.1,36.0,29.82,North,354,0.0,3.0,14,0.00,,,0.00,weatherlink.com 1.10,2012-07-09 23:55:00,
2012-07-09 17:10:00,89.9,35.0,29.81,NNW,333,1.0,4.0,14,0.00,,,0.00,weatherlink.com 1.10,2012-07-10 00:10:00,
2012-07-09 17:25:00,89.1,37.0,29.81,NNW,347,1.0,2.0,16,0.00,,,0.00,weatherlink.com 1.10,2012-07-10 00:25:00,
2012-07-09 17:40:00,87.5,38.0,29.81,North,349,1.0,3.0,17,0.00,,,0.00,weatherlink.com 1.10,2012-07-10 00:40:00,
2012-07-09 17:55:00,86.4,38.0,29.80,WNW,302,0.0,4.0,18,0.00,,,0.00,weatherlink.com 1.10,2012-07-10 00:55:00,
2012-07-09 18:10:00,86.1,38.0,29.80,WNW,293,0.0,3.0,18,0.00,,,0.00,weatherlink.com 1.10,2012-07-10 01:10:00,
2012-07-09 18:25:00,84.7,38.0,29.80,ESE,118,0.0,4.0,19,0.00,,,0.00,weatherlink.com 1.10,2012-07-10 01:25:00,
2012-07-09 18:40:00,83.3,39.0,29.80,NE,43,1.0,4.0,21,0.00,,,0.00,weatherlink.com 1.10,2012-07-10 01:40:00,
2012-07-09 18:55:00,82.4,41.0,29.80,NNE,22,3.0,3.0,23,0.00,,,0.00,weatherlink.com 1.10,2012-07-10 01:55:00,
2012-07-09 19:10:00,81.4,41.0,29.80,NNE,13,2.0,3.0,24,0.00,,,0.00,weatherlink.com 1.10,2012-07-10 02:10:00,
2012-07-09 19:25:00,80.1,43.0,29.81,NNE,25,1.0,2.0,27,0.00,,,0.00,weatherlink.com 1.10,2012-07-10 02:25:00,
2012-07-09 19:40:00,78.6,45.0,29.81,NNE,23,0.0,1.0,30,0.00,,,0.00,weatherlink.com 1.10,2012-07-10 02:40:00,
2012-07-09 19:55:00,76.9,45.0,29.81,NNE,25,1.0,1.0,32,0.00,,,0.00,weatherlink.com 1.10,2012-07-10 02:55:00,
2012-07-09 20:11:00,74.5,43.0,29.81,NNE,15,0.0,1.0,33,0.00,,,0.00,weatherlink.com 1.10,2012-07-10 03:11:00,
2012-07-09 20:25:00,72.0,42.0,29.81,NNE,15,1.0,1.0,34,0.00,,,0.00,weatherlink.com 1.10,2012-07-10 03:25:00,
2012-07-09 20:40:00,70.1,40.0,29.82,NNE,15,0.0,1.0,34,0.00,,,0.00,weatherlink.com 1.10,2012-07-10 03:40:00,
2012-07-09 20:56:00,69.6,39.0,29.82,NNE,13,0.0,1.0,33,0.00,,,0.00,weatherlink.com 1.10,2012-07-10 03:56:00,
2012-07-09 21:10:00,70.0,39.0,29.82,North,1,0.0,1.0,32,0.00,,,0.00,weatherlink.com 1.10,2012-07-10 04:10:00,
2012-07-09 21:26:00,70.0,39.0,29.82,North,1,1.0,1.0,32,0.00,,,0.00,weatherlink.com 1.10,2012-07-10 04:26:00,
2012-07-09 21:41:00,70.9,39.0,29.83,NNE,13,1.0,1.0,31,0.00,,,0.00,weatherlink.com 1.10,2012-07-10 04:41:00,
2012-07-09 21:56:00,71.2,38.0,29.83,NNE,15,1.0,2.0,30,0.00,,,0.00,weatherlink.com 1.10,2012-07-10 04:56:00,
2012-07-09 22:11:00,72.5,38.0,29.83,NNE,16,1.0,2.0,29,0.00,,,0.00,weatherlink.com 1.10,2012-07-10 05:11:00,
2012-07-09 22:26:00,71.9,38.0,29.83,NNE,13,2.0,2.0,29,0.00,,,0.00,weatherlink.com 1.10,2012-07-10 05:26:00,
2012-07-09 22:41:00,73.1,38.0,29.83,NNE,12,2.0,3.0,28,0.00,,,0.00,weatherlink.com 1.10,2012-07-10 05:41:00,
2012-07-09 22:56:00,72.7,38.0,29.82,NNE,12,1.0,2.0,28,0.00,,,0.00,weatherlink.com 1.10,2012-07-10 05:56:00,
2012-07-09 23:11:00,73.3,38.0,29.82,North,359,1.0,2.0,28,0.00,,,0.00,weatherlink.com 1.10,2012-07-10 06:11:00,
2012-07-09 23:26:00,73.2,37.0,29.82,NNE,12,1.0,2.0,27,0.00,,,0.00,weatherlink.com 1.10,2012-07-10 06:26:00,
2012-07-09 23:41:00,73.3,37.0,29.82,North,10,1.0,2.0,27,0.00,,,0.00,weatherlink.com 1.10,2012-07-10 06:41:00,
2012-07-09 23:56:00,73.9,37.0,29.81,North,11,2.0,3.0,26,0.00,,,0.00,weatherlink.com 1.10,2012-07-10 06:56:00,